createdAt,value
2018-06-09T00:00:04.487Z,61.23
2018-06-09T00:02:33.392Z,61.42
2018-06-09T00:05:02.305Z,62.39
2018-06-09T00:07:31.991Z,62.05
2018-06-09T00:10:01.117Z,62.25
2018-06-09T00:12:30.040Z,63.17
2018-06-09T00:14:59.310Z,63.06
2018-06-09T00:17:28.366Z,62.19
2018-06-09T00:19:57.207Z,63.45
2018-06-09T00:22:26.648Z,62.21
2018-06-09T00:24:55.510Z,62.83
2018-06-09T00:27:24.433Z,63.90
2018-06-09T00:29:53.642Z,63.28
2018-06-09T00:32:22.526Z,63.78
2018-06-09T00:34:51.982Z,64.27
2018-06-09T00:37:21.258Z,63.97
2018-06-09T00:39:50.170Z,64.61
2018-06-09T00:42:19.051Z,64.35
2018-06-09T00:44:48.446Z,64.93
2018-06-09T00:47:17.355Z,64.96
2018-06-09T00:49:46.248Z,64.84
2018-06-09T00:52:15.637Z,65.01
2018-06-09T00:54:45.670Z,65.09
2018-06-09T00:57:14.615Z,65.40
2018-06-09T00:59:43.804Z,65.57
2018-06-09T01:02:12.816Z,65.59
2018-06-09T01:04:41.651Z,65.76
2018-06-09T01:07:10.950Z,65.32
2018-06-09T01:09:40.117Z,65.28
2018-06-09T01:12:09.018Z,65.61
2018-06-09T01:14:39.322Z,65.79
2018-06-09T01:17:08.277Z,66.11
2018-06-09T01:19:38.840Z,65.59
2018-06-09T01:22:07.762Z,66.12
2018-06-09T01:24:37.091Z,66.70
2018-06-09T01:27:06.439Z,67.17
2018-06-09T01:29:35.475Z,67.46
2018-06-09T01:32:06.004Z,67.30
2018-06-09T01:34:36.612Z,68.68
2018-06-09T01:37:05.679Z,68.16
2018-06-09T01:39:34.605Z,68.48
2018-06-09T01:42:04.503Z,69.14
2018-06-09T01:44:33.382Z,70.11
2018-06-09T01:47:03.580Z,68.92
2018-06-09T01:49:33.484Z,69.02
2018-06-09T01:52:04.503Z,68.99
2018-06-09T01:57:00.763Z,69.89
2018-06-09T01:59:29.964Z,69.46
2018-06-09T02:01:58.868Z,70.19
2018-06-09T02:04:27.874Z,70.11
2018-06-09T02:06:57.175Z,70.15
2018-06-09T02:09:26.129Z,70.36
2018-06-09T02:11:55.229Z,70.13
2018-06-09T02:14:24.175Z,70.02
2018-06-09T02:16:53.475Z,70.08
2018-06-09T02:19:22.398Z,69.62
2018-06-09T02:21:51.303Z,69.73
2018-06-09T02:24:20.623Z,68.59
2018-06-09T02:26:49.623Z,69.17
2018-06-09T02:29:18.567Z,69.63
2018-06-09T02:31:47.459Z,69.66
2018-06-09T02:34:16.816Z,69.23
2018-06-09T02:36:45.708Z,69.54
2018-06-09T02:39:14.608Z,69.97
2018-06-09T02:41:44.183Z,69.73
2018-06-09T02:44:13.059Z,70.12
2018-06-09T02:46:41.958Z,69.69
2018-06-09T02:49:11.247Z,69.24
2018-06-09T02:51:40.751Z,69.62
2018-06-09T02:54:09.646Z,69.62
2018-06-09T02:59:05.556Z,70.40
2018-06-09T03:01:34.914Z,71.31
2018-06-09T03:04:04.767Z,71.40
2018-06-09T03:06:34.543Z,70.96
2018-06-09T03:09:05.083Z,71.47
2018-06-09T03:11:34.589Z,71.37
2018-06-09T03:14:04.420Z,71.13
2018-06-09T03:16:33.344Z,71.25
2018-06-09T03:19:02.357Z,71.52
2018-06-09T03:21:31.366Z,71.61
2018-06-09T03:24:00.851Z,71.79
2018-06-09T03:26:31.401Z,71.30
2018-06-09T03:29:00.327Z,71.72
2018-06-09T03:31:29.400Z,71.33
2018-06-09T03:33:58.314Z,71.79
2018-06-09T03:36:27.352Z,71.86
2018-06-09T03:38:56.342Z,72.17
2018-06-09T03:41:25.314Z,71.59
2018-06-09T03:43:54.228Z,72.13
2018-06-09T03:46:23.483Z,71.50
2018-06-09T03:48:52.384Z,71.51
2018-06-09T03:51:21.254Z,71.42
2018-06-09T03:53:50.547Z,71.71
2018-06-09T03:56:19.473Z,71.13
2018-06-09T03:58:48.334Z,71.92
2018-06-09T04:01:17.725Z,71.75
2018-06-09T04:03:49.648Z,71.50
2018-06-09T04:06:22.219Z,71.83
2018-06-09T04:08:51.356Z,70.93
2018-06-09T04:11:20.600Z,70.98
2018-06-09T04:13:49.537Z,70.60
2018-06-09T04:16:18.451Z,71.01
2018-06-09T04:18:47.372Z,70.73
2018-06-09T04:21:16.230Z,70.01
2018-06-09T04:23:45.183Z,70.36
2018-06-09T04:26:14.078Z,69.71
2018-06-09T04:28:44.326Z,69.94
2018-06-09T04:31:13.236Z,69.91
2018-06-09T04:33:42.152Z,69.66
2018-06-09T04:36:11.070Z,69.89
2018-06-09T04:38:40.054Z,70.36
2018-06-09T04:41:09.485Z,69.88
2018-06-09T04:43:38.612Z,69.89
2018-06-09T04:46:07.560Z,70.35
2018-06-09T04:48:36.768Z,69.73
2018-06-09T04:51:05.740Z,69.88
2018-06-09T04:53:34.869Z,69.59
2018-06-09T04:56:04.909Z,69.86
2018-06-09T04:58:33.917Z,69.06
2018-06-09T05:01:02.984Z,68.39
2018-06-09T05:03:33.030Z,68.45
2018-06-09T05:06:02.269Z,69.31
2018-06-09T05:08:31.324Z,68.46
2018-06-09T05:11:01.034Z,68.39
2018-06-09T05:13:30.126Z,68.42
2018-06-09T05:16:02.866Z,69.26
2018-06-09T05:18:35.227Z,68.98
2018-06-09T05:21:07.321Z,68.98
2018-06-09T05:23:40.004Z,69.51
2018-06-09T05:26:14.587Z,69.52
2018-06-09T05:28:47.269Z,69.02
2018-06-09T05:31:19.295Z,69.20
2018-06-09T05:33:53.985Z,68.40
2018-06-09T05:36:25.486Z,68.28
2018-06-09T05:38:57.846Z,67.75
2018-06-09T05:41:33.562Z,67.95
2018-06-09T05:44:06.744Z,67.61
2018-06-09T05:46:37.862Z,68.10
2018-06-09T05:49:09.961Z,67.73
2018-06-09T05:51:39.526Z,66.95
2018-06-09T05:54:10.585Z,67.46
2018-06-09T05:56:44.748Z,67.32
2018-06-09T05:59:14.797Z,66.52
2018-06-09T06:01:50.254Z,66.55
2018-06-09T06:04:40.608Z,65.59
2018-06-09T06:07:12.889Z,65.40
2018-06-09T06:09:46.410Z,66.11
2018-06-09T06:12:18.735Z,65.51
2018-06-09T06:15:02.232Z,65.22
2018-06-09T06:17:36.635Z,65.40
2018-06-09T06:20:09.391Z,65.41
2018-06-09T06:22:40.759Z,65.31
2018-06-09T06:25:13.272Z,65.25
2018-06-09T06:27:48.136Z,65.13
2018-06-09T06:33:09.424Z,64.92
2018-06-09T06:35:43.000Z,64.79
2018-06-09T06:38:14.580Z,64.44
2018-06-09T06:40:50.710Z,65.14
2018-06-09T06:43:21.917Z,64.84
2018-06-09T06:45:54.401Z,64.28
2018-06-09T06:48:26.419Z,64.21
2018-06-09T06:50:59.602Z,63.95
2018-06-09T06:53:30.113Z,62.84
2018-06-09T06:56:02.942Z,61.71
2018-06-09T06:58:34.674Z,62.15
2018-06-09T07:01:03.889Z,61.13
2018-06-09T07:03:34.024Z,60.50
2018-06-09T07:06:04.608Z,60.37
2018-06-09T07:08:33.746Z,60.40
2018-06-09T07:11:02.830Z,58.75
2018-06-09T07:13:33.667Z,58.36
2018-06-09T07:16:04.535Z,58.69
2018-06-09T07:18:33.433Z,58.82
2018-06-09T07:21:02.899Z,58.38
2018-06-09T07:23:31.866Z,58.63
2018-06-09T07:26:00.763Z,58.33
2018-06-09T07:28:31.187Z,57.07
2018-06-09T07:31:00.171Z,58.10
2018-06-09T07:33:29.103Z,58.47
2018-06-09T07:38:28.419Z,58.71
2018-06-09T07:40:57.683Z,57.92
2018-06-09T07:43:27.084Z,57.73
2018-06-09T07:45:56.169Z,58.60
2018-06-09T07:48:25.118Z,58.71
2018-06-09T07:50:54.496Z,57.92
2018-06-09T07:53:23.466Z,57.91
2018-06-09T07:55:52.708Z,58.67
2018-06-09T07:58:21.946Z,58.93
2018-06-09T08:00:50.900Z,59.16
2018-06-09T08:03:19.793Z,59.08
2018-06-09T08:05:49.087Z,58.78
2018-06-09T08:08:18.294Z,59.36
2018-06-09T08:10:47.284Z,59.77
2018-06-09T08:13:16.531Z,58.79
2018-06-09T08:15:45.995Z,57.61
2018-06-09T08:18:14.923Z,58.25
2018-06-09T08:20:44.530Z,58.30
2018-06-09T08:23:13.484Z,58.07
2018-06-09T08:25:42.499Z,58.15
2018-06-09T08:28:12.114Z,56.84
2018-06-09T08:30:41.514Z,57.85
2018-06-09T08:33:10.411Z,56.81
2018-06-09T08:35:42.477Z,56.79
2018-06-09T08:38:11.411Z,56.32
2018-06-09T08:40:41.212Z,57.12
2018-06-09T08:43:10.455Z,56.96
2018-06-09T08:45:40.378Z,56.66
2018-06-09T08:48:09.287Z,56.27
2018-06-09T08:50:38.570Z,56.52
2018-06-09T08:53:07.535Z,55.93
2018-06-09T08:55:36.899Z,54.60
2018-06-09T08:58:06.687Z,56.02
2018-06-09T09:00:36.882Z,54.85
2018-06-09T09:03:05.862Z,55.29
2018-06-09T09:05:36.477Z,54.01
2018-06-09T09:08:06.817Z,54.24
2018-06-09T09:10:35.751Z,53.99
2018-06-09T09:13:06.087Z,54.09
2018-06-09T09:15:35.067Z,53.42
2018-06-09T09:18:04.869Z,53.48
2018-06-09T09:20:36.108Z,52.73
2018-06-09T09:23:05.137Z,51.50
2018-06-09T09:25:34.592Z,52.15
2018-06-09T09:28:05.202Z,52.71
2018-06-09T09:30:34.933Z,52.79
2018-06-09T09:33:04.119Z,52.62
2018-06-09T09:35:34.919Z,51.22
2018-06-09T09:38:04.995Z,50.62
2018-06-09T09:40:34.948Z,50.51
2018-06-09T09:43:04.503Z,50.31
2018-06-09T09:45:33.870Z,50.87
2018-06-09T09:48:03.705Z,49.14
2018-06-09T09:50:33.795Z,49.51
2018-06-09T09:53:03.922Z,50.10
2018-06-09T09:55:32.888Z,49.18
2018-06-09T09:58:04.615Z,48.69
2018-06-09T10:00:39.602Z,48.60
2018-06-09T10:03:08.542Z,48.81
2018-06-09T10:05:38.044Z,47.90
2018-06-09T10:08:07.002Z,47.47
2018-06-09T10:10:36.451Z,47.77
2018-06-09T10:13:05.391Z,48.08
2018-06-09T10:15:34.351Z,48.51
2018-06-09T10:18:05.969Z,47.83
2018-06-09T10:20:34.854Z,47.56
2018-06-09T10:23:03.950Z,46.30
2018-06-09T10:25:33.246Z,45.92
2018-06-09T10:28:04.226Z,45.67
2018-06-09T10:30:33.886Z,44.61
2018-06-09T10:33:03.196Z,44.91
2018-06-09T10:35:34.986Z,43.08
2018-06-09T10:38:04.697Z,44.58
2018-06-09T10:40:34.659Z,43.14
2018-06-09T10:43:03.930Z,44.00
2018-06-09T10:45:33.990Z,43.91
2018-06-09T10:48:05.208Z,42.69
2018-06-09T10:50:35.220Z,42.19
2018-06-09T10:53:08.107Z,41.57
2018-06-09T10:55:37.041Z,40.89
2018-06-09T10:58:06.282Z,40.76
2018-06-09T11:00:35.282Z,40.79
2018-06-09T11:03:04.889Z,39.83
2018-06-09T11:05:34.923Z,38.19
2018-06-09T11:08:06.163Z,38.08
2018-06-09T11:10:35.440Z,37.70
2018-06-09T11:13:04.914Z,38.73
2018-06-09T11:15:33.932Z,39.34
2018-06-09T11:18:04.692Z,38.03
2018-06-09T11:20:34.453Z,37.79
2018-06-09T11:23:03.918Z,36.28
2018-06-09T11:25:34.435Z,37.19
2018-06-09T11:28:06.022Z,37.52
2018-06-09T11:30:35.810Z,36.09
2018-06-09T11:33:04.855Z,36.64
2018-06-09T11:35:33.710Z,36.16
2018-06-09T11:38:04.570Z,35.25
2018-06-09T11:40:34.656Z,35.60
2018-06-09T11:43:03.970Z,35.82
2018-06-09T11:45:32.848Z,34.74
2018-06-09T11:48:03.268Z,35.38
2018-06-09T11:50:33.197Z,35.32
2018-06-09T11:53:02.239Z,34.05
2018-06-09T11:55:32.996Z,33.72
2018-06-09T11:58:03.694Z,35.16
2018-06-09T12:00:34.473Z,33.48
2018-06-09T12:03:03.783Z,33.05
2018-06-09T12:05:33.811Z,31.42
2018-06-09T12:08:04.687Z,31.10
2018-06-09T12:10:33.595Z,31.66
2018-06-09T12:13:03.272Z,31.26
2018-06-09T12:15:32.223Z,29.96
2018-06-09T12:18:01.199Z,29.57
2018-06-09T12:20:30.530Z,29.51
2018-06-09T12:23:00.295Z,28.77
2018-06-09T12:25:30.183Z,28.31
2018-06-09T12:27:59.612Z,28.27
2018-06-09T12:30:28.804Z,27.74
2018-06-09T12:32:57.739Z,29.83
2018-06-09T12:35:27.065Z,29.13
2018-06-09T12:37:55.940Z,28.35
2018-06-09T12:40:24.894Z,26.30
2018-06-09T12:42:54.172Z,24.88
2018-06-09T12:45:23.123Z,23.38
2018-06-09T12:47:52.077Z,22.62
2018-06-09T12:50:21.320Z,21.11
2018-06-09T12:52:50.285Z,23.18
2018-06-09T12:55:19.177Z,22.04
2018-06-09T12:57:48.986Z,20.60
2018-06-09T13:00:17.835Z,18.96
2018-06-09T13:02:46.646Z,18.29
2018-06-09T13:05:16.128Z,18.49
2018-06-09T13:07:44.954Z,18.51
2018-06-09T13:10:13.795Z,17.88
2018-06-09T13:12:44.533Z,17.83
2018-06-09T13:15:13.455Z,17.73
2018-06-09T13:17:42.330Z,17.62
2018-06-09T13:20:12.173Z,19.09
2018-06-09T13:22:41.112Z,18.52
2018-06-09T13:25:10.017Z,19.36
2018-06-09T13:27:39.505Z,19.61
2018-06-09T13:30:08.415Z,19.98
2018-06-09T13:32:37.318Z,20.14
2018-06-09T13:35:06.821Z,21.31
2018-06-09T13:37:35.840Z,21.93
2018-06-09T13:40:05.414Z,20.54
2018-06-09T13:42:35.867Z,20.69
2018-06-09T13:45:05.621Z,21.06
2018-06-09T13:47:36.613Z,20.84
2018-06-09T13:50:06.498Z,20.97
2018-06-09T13:52:35.796Z,21.74
2018-06-09T13:55:05.991Z,21.62
2018-06-09T13:57:35.898Z,21.42
2018-06-09T14:00:06.201Z,21.49
2018-06-09T14:02:35.331Z,21.45
2018-06-09T14:05:05.783Z,21.95
2018-06-09T14:07:35.437Z,21.79
2018-06-09T14:10:05.183Z,20.09
2018-06-09T14:12:34.938Z,19.48
2018-06-09T14:15:04.147Z,19.63
2018-06-09T14:17:35.658Z,20.44
2018-06-09T14:20:05.750Z,20.25
2018-06-09T14:22:36.684Z,19.66
2018-06-09T14:25:06.813Z,19.42
2018-06-09T14:27:38.166Z,19.87
2018-06-09T14:30:07.148Z,19.52
2018-06-09T14:32:36.106Z,18.50
2018-06-09T14:35:05.543Z,16.90
2018-06-09T14:37:34.931Z,16.44
2018-06-09T14:40:04.847Z,15.94
2018-06-09T14:42:34.391Z,17.22
2018-06-09T14:45:03.487Z,20.92
2018-06-09T14:47:32.627Z,24.08
2018-06-09T14:50:03.964Z,27.71
2018-06-09T14:52:32.892Z,29.50
2018-06-09T14:55:01.791Z,33.28
2018-06-09T14:57:32.966Z,31.70
2018-06-09T15:00:02.920Z,32.73
2018-06-09T15:02:33.642Z,31.70
2018-06-09T15:05:02.942Z,32.09
2018-06-09T15:07:31.816Z,32.60
2018-06-09T15:10:02.091Z,33.44
2018-06-09T15:12:32.302Z,34.30
2018-06-09T15:15:01.423Z,34.16
2018-06-09T15:17:31.648Z,34.62
2018-06-09T15:20:01.242Z,35.52
2018-06-09T15:22:32.073Z,36.25
2018-06-09T15:25:01.238Z,34.73
2018-06-09T15:27:31.569Z,35.04
2018-06-09T15:30:00.567Z,37.08
2018-06-09T15:32:29.659Z,38.06
2018-06-09T15:35:00.077Z,38.95
2018-06-09T15:37:29.041Z,39.01
2018-06-09T15:39:57.979Z,40.32
2018-06-09T15:42:27.421Z,40.49
2018-06-09T15:44:57.068Z,40.60
2018-06-09T15:47:27.144Z,42.03
2018-06-09T15:49:57.396Z,44.44
2018-06-09T15:52:26.351Z,42.94
2018-06-09T15:54:56.617Z,43.21
2018-06-09T15:57:26.776Z,40.90
2018-06-09T15:59:58.547Z,43.31
2018-06-09T16:02:28.215Z,43.33
2018-06-09T16:04:57.548Z,43.25
2018-06-09T16:07:26.665Z,41.18
2018-06-09T16:09:55.716Z,41.96
2018-06-09T16:12:25.123Z,41.47
2018-06-09T16:14:54.513Z,42.13
2018-06-09T16:17:23.498Z,41.78
2018-06-09T16:19:53.040Z,43.21
2018-06-09T16:22:22.139Z,43.91
2018-06-09T16:24:51.351Z,42.47
2018-06-09T16:27:20.803Z,45.82
2018-06-09T16:29:49.723Z,47.13
2018-06-09T16:32:19.049Z,46.93
2018-06-09T16:34:48.115Z,47.89
2018-06-09T16:37:17.116Z,48.47
2018-06-09T16:39:46.268Z,50.54
2018-06-09T16:42:15.292Z,50.11
2018-06-09T16:44:45.509Z,49.78
2018-06-09T16:47:14.535Z,50.42
2018-06-09T16:49:43.566Z,50.00
2018-06-09T16:52:13.069Z,48.94
2018-06-09T16:54:42.370Z,48.93
2018-06-09T16:57:11.298Z,49.79
2018-06-09T17:02:06.919Z,49.53
2018-06-09T17:04:36.645Z,49.42
2018-06-09T17:07:05.986Z,48.99
2018-06-09T17:09:35.223Z,49.26
2018-06-09T17:12:05.160Z,49.59
2018-06-09T17:14:34.579Z,49.64
2018-06-09T17:17:04.375Z,48.20
2018-06-09T17:19:33.964Z,49.15
2018-06-09T17:22:05.591Z,48.70
2018-06-09T17:24:35.669Z,48.47
2018-06-09T17:27:05.630Z,48.01
2018-06-09T17:29:35.892Z,47.38
2018-06-09T17:32:06.562Z,47.73
2018-06-09T17:34:37.326Z,45.12
2018-06-09T17:37:07.035Z,44.99
2018-06-09T17:39:36.423Z,44.86
2018-06-09T17:42:07.787Z,42.90
2018-06-09T17:44:37.302Z,42.55
2018-06-09T17:47:06.233Z,41.99
2018-06-09T17:49:35.163Z,43.07
2018-06-09T17:52:05.584Z,42.72
2018-06-09T17:54:35.297Z,42.72
2018-06-09T17:57:04.358Z,43.89
2018-06-09T17:59:33.701Z,45.63
2018-06-09T18:02:04.503Z,43.43
2018-06-09T18:04:34.241Z,45.91
2018-06-09T18:07:03.973Z,43.99
2018-06-09T18:09:32.819Z,44.21
2018-06-09T18:12:01.824Z,42.78
2018-06-09T18:14:31.392Z,44.35
2018-06-09T18:17:00.498Z,43.84
2018-06-09T18:19:30.010Z,44.26
2018-06-09T18:21:59.791Z,45.51
2018-06-09T18:24:28.875Z,44.38
2018-06-09T18:26:58.068Z,45.54
2018-06-09T18:29:27.343Z,48.80
2018-06-09T18:31:56.398Z,50.86
2018-06-09T18:34:25.307Z,52.00
2018-06-09T18:36:54.542Z,51.73
2018-06-09T18:39:23.587Z,52.18
2018-06-09T18:41:53.934Z,51.98
2018-06-09T18:44:22.899Z,51.70
2018-06-09T18:46:51.871Z,52.54
2018-06-09T18:49:20.827Z,52.07
2018-06-09T18:51:49.712Z,51.45
2018-06-09T18:54:19.095Z,52.05
2018-06-09T18:56:48.679Z,52.77
2018-06-09T18:59:17.529Z,51.56
2018-06-09T19:01:46.877Z,51.39
2018-06-09T19:04:15.853Z,51.72
2018-06-09T19:06:45.383Z,52.51
2018-06-09T19:09:15.039Z,52.38
2018-06-09T19:11:44.223Z,54.00
2018-06-09T19:14:13.228Z,53.49
2018-06-09T19:16:42.610Z,53.91
2018-06-09T19:19:11.505Z,53.40
2018-06-09T19:21:42.232Z,53.23
2018-06-09T19:24:11.607Z,54.77
2018-06-09T19:26:40.794Z,55.71
2018-06-09T19:29:09.816Z,56.54
2018-06-09T19:31:40.501Z,57.74
2018-06-09T19:34:09.522Z,57.48
2018-06-09T19:36:39.599Z,57.72
2018-06-09T19:39:09.322Z,57.91
2018-06-09T19:41:38.294Z,58.30
2018-06-09T19:44:08.176Z,58.77
2018-06-09T19:46:39.511Z,59.20
2018-06-09T19:49:08.483Z,58.97
2018-06-09T19:51:37.439Z,59.46
2018-06-09T19:54:06.718Z,60.22
2018-06-09T19:56:36.021Z,62.18
2018-06-09T19:59:05.149Z,62.10
2018-06-09T20:01:34.888Z,62.80
2018-06-09T20:04:04.595Z,64.47
2018-06-09T20:06:35.634Z,63.97
2018-06-09T20:09:06.276Z,65.04
2018-06-09T20:11:36.733Z,65.96
2018-06-09T20:14:06.746Z,66.30
2018-06-09T20:16:36.619Z,67.60
2018-06-09T20:19:06.117Z,66.14
2018-06-09T20:21:35.043Z,65.39
2018-06-09T20:24:04.673Z,65.46
2018-06-09T20:26:34.056Z,64.84
2018-06-09T20:29:03.022Z,64.01
2018-06-09T20:31:31.994Z,65.35
2018-06-09T20:34:02.979Z,65.69
2018-06-09T20:36:32.282Z,64.32
2018-06-09T20:39:01.312Z,62.89
2018-06-09T20:41:31.404Z,64.50
2018-06-09T20:44:00.407Z,63.78
2018-06-09T20:46:29.508Z,63.64
2018-06-09T20:48:58.588Z,64.42
2018-06-09T20:51:27.458Z,64.34
2018-06-09T20:53:56.409Z,65.47
2018-06-09T20:56:25.248Z,64.92
2018-06-09T20:58:55.026Z,64.93
2018-06-09T21:01:23.957Z,64.57
2018-06-09T21:03:52.932Z,65.46
2018-06-09T21:06:22.167Z,65.39
2018-06-09T21:08:51.103Z,65.89
2018-06-09T21:11:20.061Z,66.44
2018-06-09T21:13:49.449Z,66.27
2018-06-09T21:16:18.439Z,65.75
2018-06-09T21:18:47.792Z,66.99
2018-06-09T21:21:16.691Z,68.49
2018-06-09T21:23:45.614Z,67.87
2018-06-09T21:26:15.375Z,66.31
2018-06-09T21:28:49.590Z,67.77
2018-06-09T21:31:23.432Z,68.59
2018-06-09T21:34:05.571Z,68.60
2018-06-09T21:36:40.655Z,69.32
2018-06-09T21:39:17.943Z,68.37
2018-06-09T21:41:52.215Z,68.12
2018-06-09T21:44:26.338Z,68.64
2018-06-09T21:46:55.753Z,68.51
2018-06-09T21:49:24.732Z,70.39
2018-06-09T21:51:54.273Z,70.78
2018-06-09T21:54:23.590Z,71.23
2018-06-09T21:56:52.657Z,71.28
2018-06-09T21:59:21.800Z,72.33
2018-06-09T22:01:50.979Z,71.98
2018-06-09T22:04:19.924Z,72.18
2018-06-09T22:06:49.231Z,71.79
2018-06-09T22:09:18.135Z,71.12
2018-06-09T22:11:47.377Z,70.59
2018-06-09T22:14:16.363Z,70.98
2018-06-09T22:16:45.249Z,71.01
2018-06-09T22:19:15.598Z,71.33
2018-06-09T22:21:44.585Z,70.30
2018-06-09T22:24:13.586Z,71.01
2018-06-09T22:26:44.294Z,70.45
2018-06-09T22:29:13.260Z,71.13
2018-06-09T22:31:42.261Z,71.05
2018-06-09T22:34:11.590Z,71.06
2018-06-09T22:36:41.340Z,70.48
2018-06-09T22:39:10.305Z,71.17
2018-06-09T22:41:39.859Z,71.76
2018-06-09T22:44:08.789Z,72.82
2018-06-09T22:46:37.928Z,72.64
2018-06-09T22:49:07.228Z,73.22
2018-06-09T22:51:36.179Z,72.38
2018-06-09T22:54:06.523Z,71.96
2018-06-09T22:56:35.928Z,72.09
2018-06-09T22:59:04.966Z,72.82
2018-06-09T23:01:37.263Z,72.68
2018-06-09T23:04:09.919Z,71.09
2018-06-09T23:06:41.526Z,72.05
2018-06-09T23:09:10.506Z,71.07
2018-06-09T23:11:39.805Z,71.50
2018-06-09T23:14:08.725Z,71.14
2018-06-09T23:16:38.130Z,71.62
2018-06-09T23:19:07.490Z,71.20
2018-06-09T23:21:37.351Z,71.56
2018-06-09T23:24:06.352Z,71.90
2018-06-09T23:26:35.955Z,71.99
2018-06-09T23:29:05.095Z,72.05
2018-06-09T23:31:35.017Z,72.67
2018-06-09T23:34:04.947Z,73.77
2018-06-09T23:36:34.659Z,73.89
2018-06-09T23:39:04.381Z,73.28
2018-06-09T23:41:33.338Z,74.18
2018-06-09T23:44:04.125Z,74.06
2018-06-09T23:46:33.146Z,73.91
2018-06-09T23:49:02.185Z,74.67
2018-06-09T23:51:31.654Z,74.99
2018-06-09T23:54:01.032Z,75.12
2018-06-09T23:56:32.392Z,74.79
2018-06-09T23:59:04.215Z,73.91
